sensor_id;sensor_type;location;lat;lon;timestamp;P1;durP1;ratioP1;P2;durP2;ratioP2
68310;SDS011;55157;51.036;17.058;2023-06-26T00:00:35;11.52;;;7.93;;
68310;SDS011;55157;51.036;17.058;2023-06-26T00:03:01;12.73;;;8.57;;
68310;SDS011;55157;51.036;17.058;2023-06-26T00:05:27;12.98;;;9.60;;
68310;SDS011;55157;51.036;17.058;2023-06-26T00:07:52;14.20;;;9.07;;
68310;SDS011;55157;51.036;17.058;2023-06-26T00:10:17;15.45;;;9.23;;
68310;SDS011;55157;51.036;17.058;2023-06-26T00:12:42;8.70;;;7.80;;
68310;SDS011;55157;51.036;17.058;2023-06-26T00:15:08;9.82;;;8.13;;
68310;SDS011;55157;51.036;17.058;2023-06-26T00:17:33;13.80;;;8.93;;
68310;SDS011;55157;51.036;17.058;2023-06-26T00:20:00;10.13;;;8.63;;
68310;SDS011;55157;51.036;17.058;2023-06-26T00:22:25;17.00;;;8.65;;
68310;SDS011;55157;51.036;17.058;2023-06-26T00:24:51;10.73;;;8.50;;
68310;SDS011;55157;51.036;17.058;2023-06-26T00:27:16;10.95;;;8.10;;
68310;SDS011;55157;51.036;17.058;2023-06-26T00:29:41;13.73;;;8.82;;
68310;SDS011;55157;51.036;17.058;2023-06-26T00:32:06;10.98;;;9.10;;
68310;SDS011;55157;51.036;17.058;2023-06-26T00:34:32;15.23;;;8.68;;
68310;SDS011;55157;51.036;17.058;2023-06-26T00:36:58;11.52;;;9.05;;
68310;SDS011;55157;51.036;17.058;2023-06-26T00:39:24;12.80;;;9.70;;
68310;SDS011;55157;51.036;17.058;2023-06-26T00:41:49;13.85;;;8.75;;
68310;SDS011;55157;51.036;17.058;2023-06-26T00:44:14;12.38;;;9.38;;
68310;SDS011;55157;51.036;17.058;2023-06-26T00:46:40;18.92;;;9.35;;
68310;SDS011;55157;51.036;17.058;2023-06-26T00:49:05;12.18;;;9.38;;
68310;SDS011;55157;51.036;17.058;2023-06-26T00:51:30;23.88;;;10.43;;
68310;SDS011;55157;51.036;17.058;2023-06-26T00:53:57;15.55;;;9.68;;
68310;SDS011;55157;51.036;17.058;2023-06-26T00:56:23;10.20;;;8.88;;
68310;SDS011;55157;51.036;17.058;2023-06-26T00:58:48;14.73;;;10.13;;
68310;SDS011;55157;51.036;17.058;2023-06-26T01:01:13;17.85;;;9.45;;
68310;SDS011;55157;51.036;17.058;2023-06-26T01:03:38;14.48;;;9.10;;
68310;SDS011;55157;51.036;17.058;2023-06-26T01:06:04;15.23;;;8.95;;
68310;SDS011;55157;51.036;17.058;2023-06-26T01:08:29;14.60;;;8.93;;
68310;SDS011;55157;51.036;17.058;2023-06-26T01:10:56;12.18;;;9.35;;
68310;SDS011;55157;51.036;17.058;2023-06-26T01:13:21;9.73;;;8.18;;
68310;SDS011;55157;51.036;17.058;2023-06-26T01:15:47;12.23;;;9.35;;
68310;SDS011;55157;51.036;17.058;2023-06-26T01:18:13;12.38;;;8.48;;
68310;SDS011;55157;51.036;17.058;2023-06-26T01:20:39;11.13;;;9.05;;
68310;SDS011;55157;51.036;17.058;2023-06-26T01:23:07;12.95;;;8.57;;
68310;SDS011;55157;51.036;17.058;2023-06-26T01:25:38;13.82;;;8.15;;
68310;SDS011;55157;51.036;17.058;2023-06-26T01:28:07;14.07;;;7.85;;
68310;SDS011;55157;51.036;17.058;2023-06-26T01:30:33;18.63;;;8.52;;
68310;SDS011;55157;51.036;17.058;2023-06-26T01:32:59;15.80;;;9.60;;
68310;SDS011;55157;51.036;17.058;2023-06-26T01:35:24;12.75;;;9.50;;
68310;SDS011;55157;51.036;17.058;2023-06-26T01:37:49;18.33;;;9.85;;
68310;SDS011;55157;51.036;17.058;2023-06-26T01:40:15;20.63;;;10.30;;
68310;SDS011;55157;51.036;17.058;2023-06-26T01:42:40;17.08;;;11.00;;
68310;SDS011;55157;51.036;17.058;2023-06-26T01:45:09;17.92;;;9.73;;
68310;SDS011;55157;51.036;17.058;2023-06-26T01:47:35;13.30;;;8.40;;
68310;SDS011;55157;51.036;17.058;2023-06-26T01:50:02;15.75;;;8.70;;
68310;SDS011;55157;51.036;17.058;2023-06-26T01:52:31;13.75;;;8.60;;
68310;SDS011;55157;51.036;17.058;2023-06-26T01:55:02;16.15;;;9.13;;
68310;SDS011;55157;51.036;17.058;2023-06-26T01:57:28;14.55;;;8.68;;
68310;SDS011;55157;51.036;17.058;2023-06-26T01:59:55;12.18;;;8.70;;
68310;SDS011;55157;51.036;17.058;2023-06-26T02:02:24;10.93;;;7.75;;
68310;SDS011;55157;51.036;17.058;2023-06-26T02:04:49;13.50;;;8.35;;
68310;SDS011;55157;51.036;17.058;2023-06-26T02:07:14;11.00;;;8.05;;
68310;SDS011;55157;51.036;17.058;2023-06-26T02:09:40;12.93;;;8.52;;
68310;SDS011;55157;51.036;17.058;2023-06-26T02:12:05;10.63;;;7.72;;
68310;SDS011;55157;51.036;17.058;2023-06-26T02:14:30;12.48;;;7.70;;
68310;SDS011;55157;51.036;17.058;2023-06-26T02:16:56;13.30;;;7.63;;
68310;SDS011;55157;51.036;17.058;2023-06-26T02:19:26;12.80;;;7.10;;
68310;SDS011;55157;51.036;17.058;2023-06-26T02:21:51;17.58;;;8.23;;
68310;SDS011;55157;51.036;17.058;2023-06-26T02:24:16;13.80;;;8.07;;
68310;SDS011;55157;51.036;17.058;2023-06-26T02:26:42;12.48;;;8.38;;
68310;SDS011;55157;51.036;17.058;2023-06-26T02:29:07;19.60;;;7.38;;
68310;SDS011;55157;51.036;17.058;2023-06-26T02:31:32;14.07;;;7.80;;
68310;SDS011;55157;51.036;17.058;2023-06-26T02:33:57;17.65;;;7.80;;
68310;SDS011;55157;51.036;17.058;2023-06-26T02:36:24;11.65;;;8.20;;
68310;SDS011;55157;51.036;17.058;2023-06-26T02:38:49;17.90;;;8.32;;
68310;SDS011;55157;51.036;17.058;2023-06-26T02:41:14;13.35;;;8.07;;
68310;SDS011;55157;51.036;17.058;2023-06-26T02:43:40;14.63;;;8.02;;
68310;SDS011;55157;51.036;17.058;2023-06-26T02:46:05;18.02;;;8.68;;
68310;SDS011;55157;51.036;17.058;2023-06-26T02:48:30;14.35;;;7.85;;
68310;SDS011;55157;51.036;17.058;2023-06-26T02:50:56;14.98;;;7.97;;
68310;SDS011;55157;51.036;17.058;2023-06-26T02:53:22;11.43;;;7.47;;
68310;SDS011;55157;51.036;17.058;2023-06-26T02:55:48;12.10;;;7.95;;
68310;SDS011;55157;51.036;17.058;2023-06-26T02:58:13;17.25;;;8.00;;
68310;SDS011;55157;51.036;17.058;2023-06-26T03:00:38;10.93;;;7.90;;
68310;SDS011;55157;51.036;17.058;2023-06-26T03:03:04;12.85;;;8.07;;
68310;SDS011;55157;51.036;17.058;2023-06-26T03:05:29;10.75;;;7.55;;
68310;SDS011;55157;51.036;17.058;2023-06-26T03:07:54;13.48;;;8.07;;
68310;SDS011;55157;51.036;17.058;2023-06-26T03:10:21;21.08;;;7.93;;
68310;SDS011;55157;51.036;17.058;2023-06-26T03:12:46;18.52;;;8.30;;
68310;SDS011;55157;51.036;17.058;2023-06-26T03:15:11;16.48;;;9.32;;
68310;SDS011;55157;51.036;17.058;2023-06-26T03:17:37;10.57;;;7.05;;
68310;SDS011;55157;51.036;17.058;2023-06-26T03:20:02;13.60;;;7.93;;
68310;SDS011;55157;51.036;17.058;2023-06-26T03:22:27;17.67;;;8.13;;
68310;SDS011;55157;51.036;17.058;2023-06-26T03:24:53;14.23;;;8.13;;
68310;SDS011;55157;51.036;17.058;2023-06-26T03:27:19;16.17;;;8.18;;
68310;SDS011;55157;51.036;17.058;2023-06-26T03:29:45;13.32;;;8.63;;
68310;SDS011;55157;51.036;17.058;2023-06-26T03:32:10;14.73;;;9.25;;
68310;SDS011;55157;51.036;17.058;2023-06-26T03:34:35;16.35;;;9.75;;
68310;SDS011;55157;51.036;17.058;2023-06-26T03:37:00;16.27;;;9.82;;
68310;SDS011;55157;51.036;17.058;2023-06-26T03:39:26;15.15;;;9.10;;
68310;SDS011;55157;51.036;17.058;2023-06-26T03:41:51;16.25;;;9.45;;
68310;SDS011;55157;51.036;17.058;2023-06-26T03:44:18;15.57;;;9.32;;
68310;SDS011;55157;51.036;17.058;2023-06-26T03:46:43;16.35;;;9.30;;
68310;SDS011;55157;51.036;17.058;2023-06-26T03:49:08;11.65;;;8.95;;
68310;SDS011;55157;51.036;17.058;2023-06-26T03:51:33;16.35;;;8.82;;
68310;SDS011;55157;51.036;17.058;2023-06-26T03:53:59;16.83;;;9.23;;
68310;SDS011;55157;51.036;17.058;2023-06-26T03:56:24;22.85;;;9.48;;
68310;SDS011;55157;51.036;17.058;2023-06-26T03:58:49;17.02;;;9.25;;
68310;SDS011;55157;51.036;17.058;2023-06-26T04:01:16;12.75;;;8.32;;
68310;SDS011;55157;51.036;17.058;2023-06-26T04:03:41;15.45;;;9.32;;
68310;SDS011;55157;51.036;17.058;2023-06-26T04:06:06;14.68;;;9.00;;
68310;SDS011;55157;51.036;17.058;2023-06-26T04:08:31;15.43;;;8.80;;
68310;SDS011;55157;51.036;17.058;2023-06-26T04:10:57;13.43;;;8.65;;
68310;SDS011;55157;51.036;17.058;2023-06-26T04:13:22;12.60;;;7.88;;
68310;SDS011;55157;51.036;17.058;2023-06-26T04:15:47;14.35;;;8.35;;
68310;SDS011;55157;51.036;17.058;2023-06-26T04:18:14;14.77;;;8.18;;
68310;SDS011;55157;51.036;17.058;2023-06-26T04:20:39;13.10;;;8.20;;
68310;SDS011;55157;51.036;17.058;2023-06-26T04:23:05;13.45;;;8.23;;
68310;SDS011;55157;51.036;17.058;2023-06-26T04:25:31;14.65;;;7.80;;
68310;SDS011;55157;51.036;17.058;2023-06-26T04:27:56;11.82;;;7.90;;
68310;SDS011;55157;51.036;17.058;2023-06-26T04:30:21;16.55;;;8.05;;
68310;SDS011;55157;51.036;17.058;2023-06-26T04:32:46;21.25;;;8.68;;
68310;SDS011;55157;51.036;17.058;2023-06-26T04:35:13;14.95;;;8.07;;
68310;SDS011;55157;51.036;17.058;2023-06-26T04:37:38;11.10;;;8.15;;
68310;SDS011;55157;51.036;17.058;2023-06-26T04:40:04;12.70;;;8.07;;
68310;SDS011;55157;51.036;17.058;2023-06-26T04:42:30;17.80;;;8.77;;
68310;SDS011;55157;51.036;17.058;2023-06-26T04:44:55;15.73;;;7.72;;
68310;SDS011;55157;51.036;17.058;2023-06-26T04:47:20;16.83;;;9.10;;
68310;SDS011;55157;51.036;17.058;2023-06-26T04:49:45;12.43;;;8.15;;
68310;SDS011;55157;51.036;17.058;2023-06-26T04:52:12;21.08;;;11.15;;
68310;SDS011;55157;51.036;17.058;2023-06-26T04:54:37;17.67;;;9.98;;
68310;SDS011;55157;51.036;17.058;2023-06-26T04:57:03;14.23;;;8.93;;
68310;SDS011;55157;51.036;17.058;2023-06-26T04:59:28;13.30;;;8.60;;
68310;SDS011;55157;51.036;17.058;2023-06-26T05:01:53;16.65;;;8.90;;
68310;SDS011;55157;51.036;17.058;2023-06-26T05:04:19;16.83;;;8.98;;
68310;SDS011;55157;51.036;17.058;2023-06-26T05:06:44;16.88;;;7.90;;
68310;SDS011;55157;51.036;17.058;2023-06-26T05:09:10;13.27;;;8.35;;
68310;SDS011;55157;51.036;17.058;2023-06-26T05:11:36;13.10;;;8.18;;
68310;SDS011;55157;51.036;17.058;2023-06-26T05:14:01;14.30;;;8.05;;
68310;SDS011;55157;51.036;17.058;2023-06-26T05:16:26;19.92;;;8.35;;
68310;SDS011;55157;51.036;17.058;2023-06-26T05:18:52;16.27;;;8.57;;
68310;SDS011;55157;51.036;17.058;2023-06-26T05:21:17;11.80;;;7.88;;
68310;SDS011;55157;51.036;17.058;2023-06-26T05:23:42;18.60;;;8.50;;
68310;SDS011;55157;51.036;17.058;2023-06-26T05:26:09;20.35;;;9.20;;
68310;SDS011;55157;51.036;17.058;2023-06-26T05:28:35;16.65;;;8.23;;
68310;SDS011;55157;51.036;17.058;2023-06-26T05:31:00;16.02;;;8.93;;
68310;SDS011;55157;51.036;17.058;2023-06-26T05:33:26;11.50;;;7.72;;
68310;SDS011;55157;51.036;17.058;2023-06-26T05:35:52;19.00;;;8.07;;
68310;SDS011;55157;51.036;17.058;2023-06-26T05:38:17;15.88;;;8.73;;
68310;SDS011;55157;51.036;17.058;2023-06-26T05:40:43;15.93;;;8.60;;
68310;SDS011;55157;51.036;17.058;2023-06-26T05:43:10;14.90;;;8.23;;
68310;SDS011;55157;51.036;17.058;2023-06-26T05:45:35;13.02;;;7.60;;
68310;SDS011;55157;51.036;17.058;2023-06-26T05:48:01;12.85;;;7.05;;
68310;SDS011;55157;51.036;17.058;2023-06-26T05:50:26;9.60;;;6.70;;
68310;SDS011;55157;51.036;17.058;2023-06-26T05:52:52;12.77;;;7.38;;
68310;SDS011;55157;51.036;17.058;2023-06-26T05:55:18;12.20;;;6.72;;
68310;SDS011;55157;51.036;17.058;2023-06-26T05:57:43;11.48;;;7.05;;
68310;SDS011;55157;51.036;17.058;2023-06-26T06:00:12;16.85;;;7.93;;
68310;SDS011;55157;51.036;17.058;2023-06-26T06:02:38;12.98;;;7.55;;
68310;SDS011;55157;51.036;17.058;2023-06-26T06:05:03;17.52;;;6.82;;
68310;SDS011;55157;51.036;17.058;2023-06-26T06:07:29;14.05;;;7.50;;
68310;SDS011;55157;51.036;17.058;2023-06-26T06:09:54;16.70;;;7.78;;
68310;SDS011;55157;51.036;17.058;2023-06-26T06:12:19;14.48;;;7.00;;
68310;SDS011;55157;51.036;17.058;2023-06-26T06:14:44;9.00;;;6.45;;
68310;SDS011;55157;51.036;17.058;2023-06-26T06:17:11;14.95;;;7.10;;
68310;SDS011;55157;51.036;17.058;2023-06-26T06:19:36;15.27;;;6.15;;
68310;SDS011;55157;51.036;17.058;2023-06-26T06:22:01;13.82;;;6.65;;
68310;SDS011;55157;51.036;17.058;2023-06-26T06:24:27;12.40;;;7.43;;
68310;SDS011;55157;51.036;17.058;2023-06-26T06:26:52;14.32;;;7.13;;
68310;SDS011;55157;51.036;17.058;2023-06-26T06:29:17;13.90;;;7.53;;
68310;SDS011;55157;51.036;17.058;2023-06-26T06:31:42;16.75;;;7.80;;
68310;SDS011;55157;51.036;17.058;2023-06-26T06:34:09;15.43;;;6.35;;
68310;SDS011;55157;51.036;17.058;2023-06-26T06:36:34;14.90;;;6.65;;
68310;SDS011;55157;51.036;17.058;2023-06-26T06:39:00;15.10;;;6.18;;
68310;SDS011;55157;51.036;17.058;2023-06-26T06:41:25;9.45;;;6.70;;
68310;SDS011;55157;51.036;17.058;2023-06-26T06:43:50;12.45;;;6.60;;
68310;SDS011;55157;51.036;17.058;2023-06-26T06:46:15;25.35;;;6.53;;
68310;SDS011;55157;51.036;17.058;2023-06-26T06:48:41;11.63;;;7.32;;
68310;SDS011;55157;51.036;17.058;2023-06-26T06:51:07;12.82;;;7.00;;
68310;SDS011;55157;51.036;17.058;2023-06-26T06:53:33;14.00;;;5.65;;
68310;SDS011;55157;51.036;17.058;2023-06-26T06:55:58;11.05;;;5.60;;
68310;SDS011;55157;51.036;17.058;2023-06-26T06:58:23;10.52;;;6.13;;
68310;SDS011;55157;51.036;17.058;2023-06-26T07:00:49;9.60;;;6.03;;
68310;SDS011;55157;51.036;17.058;2023-06-26T07:03:14;15.82;;;6.03;;
68310;SDS011;55157;51.036;17.058;2023-06-26T07:05:41;13.07;;;6.03;;
68310;SDS011;55157;51.036;17.058;2023-06-26T07:08:08;14.50;;;6.05;;
68310;SDS011;55157;51.036;17.058;2023-06-26T07:10:33;10.73;;;5.47;;
68310;SDS011;55157;51.036;17.058;2023-06-26T07:12:59;8.10;;;5.22;;
68310;SDS011;55157;51.036;17.058;2023-06-26T07:15:24;12.07;;;6.35;;
68310;SDS011;55157;51.036;17.058;2023-06-26T07:17:49;13.43;;;5.95;;
68310;SDS011;55157;51.036;17.058;2023-06-26T07:20:14;7.05;;;5.15;;
68310;SDS011;55157;51.036;17.058;2023-06-26T07:22:40;8.10;;;5.00;;
68310;SDS011;55157;51.036;17.058;2023-06-26T07:25:08;12.18;;;5.57;;
68310;SDS011;55157;51.036;17.058;2023-06-26T07:27:33;6.43;;;4.90;;
68310;SDS011;55157;51.036;17.058;2023-06-26T07:29:59;11.43;;;5.27;;
68310;SDS011;55157;51.036;17.058;2023-06-26T07:32:24;8.35;;;5.00;;
68310;SDS011;55157;51.036;17.058;2023-06-26T07:34:49;9.18;;;4.88;;
68310;SDS011;55157;51.036;17.058;2023-06-26T07:37:15;10.15;;;5.40;;
68310;SDS011;55157;51.036;17.058;2023-06-26T07:39:40;9.77;;;5.00;;
68310;SDS011;55157;51.036;17.058;2023-06-26T07:42:07;10.50;;;4.90;;
68310;SDS011;55157;51.036;17.058;2023-06-26T07:44:32;11.38;;;4.63;;
68310;SDS011;55157;51.036;17.058;2023-06-26T07:46:57;7.22;;;3.78;;
68310;SDS011;55157;51.036;17.058;2023-06-26T07:49:22;8.60;;;4.70;;
68310;SDS011;55157;51.036;17.058;2023-06-26T07:51:48;9.43;;;5.07;;
68310;SDS011;55157;51.036;17.058;2023-06-26T07:54:13;12.65;;;5.82;;
68310;SDS011;55157;51.036;17.058;2023-06-26T07:56:51;5.65;;;4.10;;
68310;SDS011;55157;51.036;17.058;2023-06-26T07:59:18;14.55;;;5.43;;
68310;SDS011;55157;51.036;17.058;2023-06-26T08:01:43;5.93;;;4.03;;
68310;SDS011;55157;51.036;17.058;2023-06-26T08:04:09;9.77;;;4.35;;
68310;SDS011;55157;51.036;17.058;2023-06-26T08:06:35;22.80;;;5.90;;
68310;SDS011;55157;51.036;17.058;2023-06-26T08:09:01;6.78;;;4.05;;
68310;SDS011;55157;51.036;17.058;2023-06-26T08:11:26;6.28;;;3.90;;
68310;SDS011;55157;51.036;17.058;2023-06-26T08:13:51;5.30;;;3.97;;
68310;SDS011;55157;51.036;17.058;2023-06-26T08:16:26;6.35;;;4.63;;
68310;SDS011;55157;51.036;17.058;2023-06-26T08:18:51;8.25;;;3.58;;
68310;SDS011;55157;51.036;17.058;2023-06-26T08:21:17;4.43;;;3.63;;
68310;SDS011;55157;51.036;17.058;2023-06-26T08:23:42;8.68;;;3.63;;
68310;SDS011;55157;51.036;17.058;2023-06-26T08:26:07;4.18;;;3.65;;
68310;SDS011;55157;51.036;17.058;2023-06-26T08:28:32;4.82;;;4.07;;
68310;SDS011;55157;51.036;17.058;2023-06-26T08:30:58;4.03;;;3.60;;
68310;SDS011;55157;51.036;17.058;2023-06-26T08:33:25;6.80;;;3.97;;
68310;SDS011;55157;51.036;17.058;2023-06-26T08:35:50;7.30;;;4.10;;
68310;SDS011;55157;51.036;17.058;2023-06-26T08:38:15;5.47;;;3.88;;
68310;SDS011;55157;51.036;17.058;2023-06-26T08:40:40;5.50;;;3.08;;
68310;SDS011;55157;51.036;17.058;2023-06-26T08:43:06;13.80;;;4.20;;
68310;SDS011;55157;51.036;17.058;2023-06-26T08:45:31;8.57;;;3.88;;
68310;SDS011;55157;51.036;17.058;2023-06-26T08:47:57;8.25;;;4.20;;
68310;SDS011;55157;51.036;17.058;2023-06-26T08:50:29;4.90;;;3.90;;
68310;SDS011;55157;51.036;17.058;2023-06-26T08:52:56;4.18;;;3.78;;
68310;SDS011;55157;51.036;17.058;2023-06-26T08:55:24;5.40;;;3.88;;
68310;SDS011;55157;51.036;17.058;2023-06-26T08:57:51;5.30;;;3.88;;
68310;SDS011;55157;51.036;17.058;2023-06-26T09:00:17;18.00;;;4.70;;
68310;SDS011;55157;51.036;17.058;2023-06-26T09:02:42;7.57;;;3.75;;
68310;SDS011;55157;51.036;17.058;2023-06-26T09:05:08;8.65;;;3.63;;
68310;SDS011;55157;51.036;17.058;2023-06-26T09:07:42;13.18;;;4.22;;
68310;SDS011;55157;51.036;17.058;2023-06-26T09:10:08;5.82;;;4.20;;
68310;SDS011;55157;51.036;17.058;2023-06-26T09:12:33;6.82;;;3.22;;
68310;SDS011;55157;51.036;17.058;2023-06-26T09:15:00;8.13;;;3.95;;
68310;SDS011;55157;51.036;17.058;2023-06-26T09:17:26;9.13;;;3.40;;
68310;SDS011;55157;51.036;17.058;2023-06-26T09:19:54;10.43;;;3.33;;
68310;SDS011;55157;51.036;17.058;2023-06-26T09:22:19;4.30;;;3.13;;
68310;SDS011;55157;51.036;17.058;2023-06-26T09:24:48;9.18;;;3.33;;
68310;SDS011;55157;51.036;17.058;2023-06-26T09:27:13;4.07;;;3.13;;
68310;SDS011;55157;51.036;17.058;2023-06-26T09:29:38;2.90;;;2.60;;
68310;SDS011;55157;51.036;17.058;2023-06-26T09:32:03;6.25;;;3.35;;
68310;SDS011;55157;51.036;17.058;2023-06-26T09:34:33;5.20;;;3.38;;
68310;SDS011;55157;51.036;17.058;2023-06-26T09:36:58;3.83;;;3.15;;
68310;SDS011;55157;51.036;17.058;2023-06-26T09:39:24;16.02;;;3.97;;
68310;SDS011;55157;51.036;17.058;2023-06-26T09:41:51;11.53;;;3.67;;
68310;SDS011;55157;51.036;17.058;2023-06-26T09:44:16;5.45;;;3.08;;
68310;SDS011;55157;51.036;17.058;2023-06-26T09:46:44;3.38;;;3.05;;
68310;SDS011;55157;51.036;17.058;2023-06-26T09:49:10;3.50;;;3.17;;
68310;SDS011;55157;51.036;17.058;2023-06-26T09:51:36;10.50;;;3.17;;
68310;SDS011;55157;51.036;17.058;2023-06-26T09:54:02;4.32;;;3.15;;
68310;SDS011;55157;51.036;17.058;2023-06-26T09:56:28;3.45;;;3.10;;
68310;SDS011;55157;51.036;17.058;2023-06-26T09:58:55;4.07;;;2.70;;
68310;SDS011;55157;51.036;17.058;2023-06-26T10:01:20;3.20;;;2.80;;
68310;SDS011;55157;51.036;17.058;2023-06-26T10:03:45;8.07;;;3.35;;
68310;SDS011;55157;51.036;17.058;2023-06-26T10:06:11;4.40;;;2.93;;
68310;SDS011;55157;51.036;17.058;2023-06-26T10:08:37;7.70;;;4.72;;
68310;SDS011;55157;51.036;17.058;2023-06-26T10:11:02;4.00;;;2.85;;
68310;SDS011;55157;51.036;17.058;2023-06-26T10:13:30;4.03;;;2.87;;
68310;SDS011;55157;51.036;17.058;2023-06-26T10:15:57;3.70;;;3.00;;
68310;SDS011;55157;51.036;17.058;2023-06-26T10:18:25;3.42;;;2.72;;
68310;SDS011;55157;51.036;17.058;2023-06-26T10:20:50;4.45;;;2.60;;
68310;SDS011;55157;51.036;17.058;2023-06-26T10:23:18;4.28;;;3.03;;
68310;SDS011;55157;51.036;17.058;2023-06-26T10:25:44;4.65;;;3.03;;
68310;SDS011;55157;51.036;17.058;2023-06-26T10:28:10;11.60;;;2.75;;
68310;SDS011;55157;51.036;17.058;2023-06-26T10:30:37;3.20;;;2.63;;
68310;SDS011;55157;51.036;17.058;2023-06-26T10:33:06;3.53;;;2.03;;
68310;SDS011;55157;51.036;17.058;2023-06-26T10:35:32;3.83;;;2.67;;
68310;SDS011;55157;51.036;17.058;2023-06-26T10:38:00;4.77;;;3.73;;
68310;SDS011;55157;51.036;17.058;2023-06-26T10:40:26;3.33;;;2.53;;
68310;SDS011;55157;51.036;17.058;2023-06-26T10:42:51;3.50;;;2.47;;
68310;SDS011;55157;51.036;17.058;2023-06-26T10:45:30;2.90;;;2.60;;
68310;SDS011;55157;51.036;17.058;2023-06-26T10:47:55;6.60;;;2.30;;
68310;SDS011;55157;51.036;17.058;2023-06-26T10:50:25;6.53;;;2.78;;
68310;SDS011;55157;51.036;17.058;2023-06-26T10:53:09;3.33;;;2.53;;
68310;SDS011;55157;51.036;17.058;2023-06-26T10:55:34;3.60;;;2.40;;
68310;SDS011;55157;51.036;17.058;2023-06-26T10:58:00;3.33;;;2.47;;
68310;SDS011;55157;51.036;17.058;2023-06-26T11:00:25;3.55;;;2.45;;
68310;SDS011;55157;51.036;17.058;2023-06-26T11:02:51;4.20;;;2.88;;
68310;SDS011;55157;51.036;17.058;2023-06-26T11:05:27;3.38;;;2.50;;
68310;SDS011;55157;51.036;17.058;2023-06-26T11:08:02;4.28;;;2.50;;
68310;SDS011;55157;51.036;17.058;2023-06-26T11:10:28;2.85;;;2.35;;
68310;SDS011;55157;51.036;17.058;2023-06-26T11:12:53;4.85;;;2.95;;
68310;SDS011;55157;51.036;17.058;2023-06-26T11:15:19;2.92;;;2.60;;
68310;SDS011;55157;51.036;17.058;2023-06-26T11:17:44;5.23;;;2.30;;
68310;SDS011;55157;51.036;17.058;2023-06-26T11:20:10;4.70;;;2.03;;
68310;SDS011;55157;51.036;17.058;2023-06-26T11:22:38;4.72;;;2.30;;
68310;SDS011;55157;51.036;17.058;2023-06-26T11:25:03;2.92;;;2.50;;
68310;SDS011;55157;51.036;17.058;2023-06-26T11:27:32;4.50;;;2.80;;
68310;SDS011;55157;51.036;17.058;2023-06-26T11:29:57;7.93;;;2.85;;
68310;SDS011;55157;51.036;17.058;2023-06-26T11:32:22;6.73;;;2.70;;
68310;SDS011;55157;51.036;17.058;2023-06-26T11:34:48;7.35;;;2.45;;
68310;SDS011;55157;51.036;17.058;2023-06-26T11:37:16;3.72;;;2.55;;
68310;SDS011;55157;51.036;17.058;2023-06-26T11:39:43;3.42;;;2.67;;
68310;SDS011;55157;51.036;17.058;2023-06-26T11:42:08;3.03;;;2.20;;
68310;SDS011;55157;51.036;17.058;2023-06-26T11:44:39;3.13;;;2.50;;
68310;SDS011;55157;51.036;17.058;2023-06-26T11:47:05;2.80;;;2.47;;
68310;SDS011;55157;51.036;17.058;2023-06-26T11:49:31;2.95;;;2.47;;
68310;SDS011;55157;51.036;17.058;2023-06-26T11:51:56;3.57;;;2.30;;
68310;SDS011;55157;51.036;17.058;2023-06-26T11:54:24;7.33;;;2.60;;
68310;SDS011;55157;51.036;17.058;2023-06-26T11:56:58;3.28;;;2.33;;
68310;SDS011;55157;51.036;17.058;2023-06-26T11:59:23;4.45;;;2.75;;
68310;SDS011;55157;51.036;17.058;2023-06-26T12:01:49;4.50;;;2.67;;
68310;SDS011;55157;51.036;17.058;2023-06-26T12:04:15;3.95;;;2.63;;
68310;SDS011;55157;51.036;17.058;2023-06-26T12:06:42;4.95;;;2.35;;
68310;SDS011;55157;51.036;17.058;2023-06-26T12:09:08;3.90;;;2.72;;
68310;SDS011;55157;51.036;17.058;2023-06-26T12:11:34;4.07;;;3.15;;
68310;SDS011;55157;51.036;17.058;2023-06-26T12:14:01;6.72;;;2.58;;
68310;SDS011;55157;51.036;17.058;2023-06-26T12:16:27;3.40;;;2.50;;
68310;SDS011;55157;51.036;17.058;2023-06-26T12:18:57;6.10;;;2.72;;
68310;SDS011;55157;51.036;17.058;2023-06-26T12:21:44;4.15;;;2.40;;
68310;SDS011;55157;51.036;17.058;2023-06-26T12:24:10;2.88;;;2.58;;
68310;SDS011;55157;51.036;17.058;2023-06-26T12:26:37;4.88;;;3.28;;
68310;SDS011;55157;51.036;17.058;2023-06-26T12:29:04;4.23;;;2.80;;
68310;SDS011;55157;51.036;17.058;2023-06-26T12:31:30;7.50;;;3.22;;
68310;SDS011;55157;51.036;17.058;2023-06-26T12:33:56;5.15;;;2.95;;
68310;SDS011;55157;51.036;17.058;2023-06-26T12:36:21;4.50;;;2.40;;
68310;SDS011;55157;51.036;17.058;2023-06-26T12:38:48;3.67;;;2.60;;
68310;SDS011;55157;51.036;17.058;2023-06-26T12:41:13;4.40;;;2.83;;
68310;SDS011;55157;51.036;17.058;2023-06-26T12:43:39;4.25;;;2.63;;
68310;SDS011;55157;51.036;17.058;2023-06-26T12:46:07;6.13;;;2.90;;
68310;SDS011;55157;51.036;17.058;2023-06-26T12:48:36;4.38;;;3.03;;
68310;SDS011;55157;51.036;17.058;2023-06-26T12:51:07;2.83;;;2.45;;
68310;SDS011;55157;51.036;17.058;2023-06-26T12:53:32;4.07;;;2.80;;
68310;SDS011;55157;51.036;17.058;2023-06-26T12:55:57;3.33;;;2.60;;
68310;SDS011;55157;51.036;17.058;2023-06-26T12:58:23;5.63;;;2.30;;
68310;SDS011;55157;51.036;17.058;2023-06-26T13:00:48;4.97;;;2.77;;
68310;SDS011;55157;51.036;17.058;2023-06-26T13:03:15;2.22;;;2.03;;
68310;SDS011;55157;51.036;17.058;2023-06-26T13:05:40;3.00;;;2.58;;
68310;SDS011;55157;51.036;17.058;2023-06-26T13:08:05;4.77;;;2.50;;
68310;SDS011;55157;51.036;17.058;2023-06-26T13:10:30;5.23;;;2.70;;
68310;SDS011;55157;51.036;17.058;2023-06-26T13:12:55;3.87;;;2.67;;
68310;SDS011;55157;51.036;17.058;2023-06-26T13:15:21;3.70;;;2.40;;
68310;SDS011;55157;51.036;17.058;2023-06-26T13:17:46;3.13;;;2.80;;
68310;SDS011;55157;51.036;17.058;2023-06-26T13:20:13;3.10;;;2.73;;
68310;SDS011;55157;51.036;17.058;2023-06-26T13:22:38;3.75;;;2.60;;
68310;SDS011;55157;51.036;17.058;2023-06-26T13:25:03;2.80;;;2.50;;
68310;SDS011;55157;51.036;17.058;2023-06-26T13:27:29;7.18;;;2.60;;
68310;SDS011;55157;51.036;17.058;2023-06-26T13:29:54;2.60;;;2.30;;
68310;SDS011;55157;51.036;17.058;2023-06-26T13:32:19;3.13;;;2.67;;
68310;SDS011;55157;51.036;17.058;2023-06-26T13:34:44;3.83;;;2.47;;
68310;SDS011;55157;51.036;17.058;2023-06-26T13:37:11;5.37;;;2.77;;
68310;SDS011;55157;51.036;17.058;2023-06-26T13:39:37;3.13;;;2.65;;
68310;SDS011;55157;51.036;17.058;2023-06-26T13:42:02;3.00;;;2.47;;
68310;SDS011;55157;51.036;17.058;2023-06-26T13:44:28;5.82;;;2.50;;
68310;SDS011;55157;51.036;17.058;2023-06-26T13:46:53;4.30;;;2.67;;
68310;SDS011;55157;51.036;17.058;2023-06-26T13:49:19;3.03;;;2.50;;
68310;SDS011;55157;51.036;17.058;2023-06-26T13:51:44;3.03;;;2.45;;
68310;SDS011;55157;51.036;17.058;2023-06-26T13:54:11;3.37;;;2.60;;
68310;SDS011;55157;51.036;17.058;2023-06-26T13:56:36;2.75;;;2.40;;
68310;SDS011;55157;51.036;17.058;2023-06-26T13:59:01;3.00;;;2.57;;
68310;SDS011;55157;51.036;17.058;2023-06-26T14:01:26;4.88;;;2.60;;
68310;SDS011;55157;51.036;17.058;2023-06-26T14:03:52;3.63;;;2.45;;
68310;SDS011;55157;51.036;17.058;2023-06-26T14:06:17;3.53;;;2.53;;
68310;SDS011;55157;51.036;17.058;2023-06-26T14:08:42;6.70;;;2.47;;
68310;SDS011;55157;51.036;17.058;2023-06-26T14:11:09;9.23;;;2.47;;
68310;SDS011;55157;51.036;17.058;2023-06-26T14:13:35;3.38;;;2.25;;
68310;SDS011;55157;51.036;17.058;2023-06-26T14:16:00;3.70;;;2.42;;
68310;SDS011;55157;51.036;17.058;2023-06-26T14:18:25;3.77;;;2.53;;
68310;SDS011;55157;51.036;17.058;2023-06-26T14:20:51;3.17;;;2.80;;